PORTS® Data Listing: 8639348 Money Point, VA

CO-OPS RAW PORTS DATA

************************      PRELIMINARY DATA      ************************** 

     THIS RAW DATA HAS NOT BEEN SUBJECT TO THE NATIONAL OCEAN SERVICE'S        
     QUALITY CONTROL OR QUALITY ASSURANCE PROCEDURES AND DOES NOT MEET         
     THE CRITERIA AND STANDARDS OF OFFICIAL NATIONAL OCEAN SERVICE             
     DATA.  IT IS RELEASED FOR LIMITED PUBLIC USE AS PRELIMINARY DATA TO       
     BE USED ONLY WITH APPROPRIATE CAUTION.                                    

************************      PRELIMINARY DATA      ************************** 


       CD   -   Calendar date
       T    -   Time
       TZ   -   Timezone
       PW   -   Predicted water level (feet above MLLW)
       OW   -   Observed water level (feet above MLLW)
       WS   -   Wind speed (knots)
       WD   -   Wind direction (degrees true)
       WG   -   Wind gust (knots)
       AT   -   Air temperature (degrees farenheit)
       WT   -   Water temperature (degrees farenheit)
       AP   -   Air pressure (millibars)
       SA   -   Salinty (PSU - Practical Salinity Units)
       SG   -   Specific gravity
       RH   -   Relative humidity
       AG   -   Air gap (feet)
       VI   -   Visibility (nautical miles)

       ** NOTE **
       A variable that has its data fields filled with "9"s, indicates that
       data was not collected for that sample period.
       **********


STATION NAME: Money Point (8639348)
****************************************************************************************************
    CD       T    TZ    PW     OW    WS   WD   WG    AT    WT    AP    SA    SG     RH    AG   VI
****************************************************************************************************
2019/12/09 22:12 EST    1.22   1.25    9  202   14  66.4  50.9 1014.0 21.1  1.017 -99.9 -99.99 -9.99
2019/12/09 22:18 EST    1.16   1.20    8  204   13  66.2  50.9 1013.9 21.2  1.017 -99.9 -99.99 -9.99
2019/12/09 22:24 EST    1.09   1.14    8  203   12  66.2  50.9 1013.7 21.1  1.017 -99.9 -99.99 -9.99
2019/12/09 22:30 EST    1.02   1.09    7  203   12  66.2  50.9 1013.9 21.1  1.017 -99.9 -99.99 -9.99
2019/12/09 22:36 EST    0.96   1.03    8  217   14  66.4  51.1 1014.0 21.0  1.017 -99.9 -99.99 -9.99
2019/12/09 22:42 EST    0.89   0.98    8  211   14  66.2  51.1 1014.0 21.0  1.017 -99.9 -99.99 -9.99
2019/12/09 22:48 EST    0.82   0.93    6  221    9  66.2  51.1 1014.1 21.0  1.017 -99.9 -99.99 -9.99
2019/12/09 22:54 EST    0.76   0.88    6  228   10  66.0  51.1 1014.2 21.0  1.017 -99.9 -99.99 -9.99
2019/12/09 23:00 EST    0.69   0.82    6  217   11  66.2  51.3 1014.1 20.9  1.017 -99.9 -99.99 -9.99
2019/12/09 23:06 EST    0.63   0.76    9  220   15  66.2  51.3 1014.2 20.9  1.017 -99.9 -99.99 -9.99
2019/12/09 23:12 EST    0.56   0.70    6  223   11  66.0  51.3 1014.2 20.9  1.017 -99.9 -99.99 -9.99
2019/12/09 23:18 EST    0.50   0.65    7  222   11  66.0  51.3 1014.2 20.9  1.017 -99.9 -99.99 -9.99
2019/12/09 23:24 EST    0.44   0.57    6  218   10  66.0  51.3 1014.1 20.9  1.017 -99.9 -99.99 -9.99
2019/12/09 23:30 EST    0.38   0.52    6  212   10  65.8  51.3 1014.0 20.8  1.017 -99.9 -99.99 -9.99
2019/12/09 23:36 EST    0.32   0.46    8  209   11  65.8  51.3 1013.9 20.9  1.017 -99.9 -99.99 -9.99
2019/12/09 23:42 EST    0.26   0.42    7  221   13  66.0  51.3 1013.8 20.9  1.017 -99.9 -99.99 -9.99
2019/12/09 23:48 EST    0.21   0.37    7  209   11  65.8  51.3 1013.8 20.8  1.017 -99.9 -99.99 -9.99
2019/12/09 23:54 EST    0.16   0.31   10  217   13  66.0  51.3 1013.9 20.8  1.017 -99.9 -99.99 -9.99
2019/12/10 00:00 EST    0.11   0.26    9  216   12  65.8  51.3 1013.9 20.9  1.017 -99.9 -99.99 -9.99
2019/12/10 00:06 EST    0.07   0.22    6  225   10  65.7  51.3 1013.8 20.7  1.017 -99.9 -99.99 -9.99
2019/12/10 00:12 EST    0.02   0.16    7  210   13  65.7  51.3 1013.8 20.7  1.017 -99.9 -99.99 -9.99
2019/12/10 00:18 EST   -0.02   0.11    9  210   13  65.8  51.3 1013.8 20.6  1.017 -99.9 -99.99 -9.99
2019/12/10 00:24 EST   -0.05   0.07    7  223   13  65.7  51.4 1013.8 20.5  1.016 -99.9 -99.99 -9.99
2019/12/10 00:30 EST   -0.09   0.03    9  215   13  65.8  51.4 1013.8 20.5  1.016 -99.9 -99.99 -9.99
2019/12/10 00:36 EST   -0.11  -0.01    8  213   14  65.7  51.3 1013.7 20.5  1.016 -99.9 -99.99 -9.99
2019/12/10 00:42 EST   -0.14  -0.04    9  218   13  65.7  51.3 1013.7 20.5  1.016 -99.9 -99.99 -9.99
2019/12/10 00:48 EST   -0.16  -0.07    8  210   13  65.7  51.4 1013.6 20.5  1.016 -99.9 -99.99 -9.99
2019/12/10 00:54 EST   -0.18  -0.09    6  223   11  65.5  51.4 1013.6 20.5  1.016 -99.9 -99.99 -9.99
2019/12/10 01:00 EST   -0.19  -0.11    6  219   11  65.7  51.6 1013.6 20.4  1.016 -99.9 -99.99 -9.99
2019/12/10 01:06 EST   -0.20  -0.12    9  211   13  65.7  51.4 1013.6 20.4  1.016 -99.9 -99.99 -9.99
2019/12/10 01:12 EST   -0.20  -0.13    8  207   14  65.7  51.4 1013.4 20.4  1.016 -99.9 -99.99 -9.99
2019/12/10 01:18 EST   -0.20  -0.14    8  210   13  65.7  51.4 1013.3 20.3  1.016 -99.9 -99.99 -9.99
2019/12/10 01:24 EST   -0.20  -0.14    9  207   14  65.7  51.4 1013.3 20.3  1.016 -99.9 -99.99 -9.99
2019/12/10 01:30 EST   -0.19  -0.15    7  211   12  65.7  51.4 1013.3 20.3  1.016 -99.9 -99.99 -9.99
2019/12/10 01:36 EST   -0.18  -0.16    7  211   11  65.7  51.4 1013.2 20.3  1.016 -99.9 -99.99 -9.99
2019/12/10 01:42 EST   -0.16  -0.15    8  208   14  65.7  51.4 1013.4 20.2  1.016 -99.9 -99.99 -9.99
2019/12/10 01:48 EST   -0.14  -0.13    8  204   13  65.7  51.4 1013.4 20.2  1.016 -99.9 -99.99 -9.99
2019/12/10 01:54 EST   -0.12  -0.11    6  215   12  65.7  51.4 1013.4 20.2  1.016 -99.9 -99.99 -9.99
2019/12/10 02:00 EST   -0.09  -0.09    8  211   12  65.7  51.3 1013.5 20.6  1.017 -99.9 -99.99 -9.99
2019/12/10 02:06 EST   -0.06  -0.06    8  227   12  65.7  51.1 1013.6 20.6  1.017 -99.9 -99.99 -9.99
2019/12/10 02:12 EST   -0.02  -0.02    9  232   13  65.7  51.1 1013.6 20.5  1.016 -99.9 -99.99 -9.99
2019/12/10 02:18 EST    0.02   0.03    6  216    9  65.5  51.1 1013.6 20.5  1.016 -99.9 -99.99 -9.99
2019/12/10 02:24 EST    0.06   0.07    6  221   14  65.5  51.1 1013.7 20.5  1.016 -99.9 -99.99 -9.99
2019/12/10 02:30 EST    0.10   0.11    6  234   13  65.5  51.1 1013.8 20.6  1.017 -99.9 -99.99 -9.99
2019/12/10 02:36 EST    0.15   0.16    7  222   11  65.5  51.3 1013.8 20.3  1.016 -99.9 -99.99 -9.99
2019/12/10 02:42 EST    0.20   0.21    6  221   10  65.3  51.3 1013.9 20.5  1.016 -99.9 -99.99 -9.99
2019/12/10 02:48 EST    0.25   0.26    8  224   12  65.3  51.1 1013.9 20.7  1.017 -99.9 -99.99 -9.99
2019/12/10 02:54 EST    0.31   0.31    7  221   11  65.3  51.1 1013.9 20.6  1.017 -99.9 -99.99 -9.99
2019/12/10 03:00 EST    0.36   0.35    7  225   10  65.1  51.1 1013.9 20.7  1.017 -99.9 -99.99 -9.99
2019/12/10 03:06 EST    0.42   0.39    9  222   13  65.5  50.9 1014.1 20.9  1.017 -99.9 -99.99 -9.99
2019/12/10 03:12 EST    0.48   0.45    6  226   12  65.1  51.1 1013.9 20.7  1.017 -99.9 -99.99 -9.99
2019/12/10 03:18 EST    0.55   0.50    8  223   11  65.1  50.9 1013.8 20.8  1.017 -99.9 -99.99 -9.99
2019/12/10 03:24 EST    0.61   0.56    6  226   11  64.9  50.9 1013.8 20.8  1.017 -99.9 -99.99 -9.99
2019/12/10 03:30 EST    0.68   0.61    5  216   11  64.9  50.9 1013.7 20.8  1.017 -99.9 -99.99 -9.99
2019/12/10 03:36 EST    0.74   0.68    7  214   11  64.9  50.9 1013.7 20.8  1.017 -99.9 -99.99 -9.99
2019/12/10 03:42 EST    0.81   0.74    6  215   11  64.9  50.9 1013.7 21.3  1.017 -99.9 -99.99 -9.99
2019/12/10 03:48 EST    0.88   0.80    6  213   10  64.9  50.9 1013.6 21.4  1.017 -99.9 -99.99 -9.99
2019/12/10 03:54 EST    0.95   0.86    7  213   11  64.9  50.9 1013.7 21.4  1.017 -99.9 -99.99 -9.99
2019/12/10 04:00 EST    1.02   0.92    6  208   11  64.8  50.7 1013.4 21.4  1.017 -99.9 -99.99 -9.99
2019/12/10 04:06 EST    1.10   0.97    8  205   12  64.8  50.7 1013.4 21.4  1.017 -99.9 -99.99 -9.99
2019/12/10 04:12 EST    1.17   1.03    9  209   12  64.9  50.9 1013.3 21.0  1.017 -99.9 -99.99 -9.99
2019/12/10 04:18 EST    1.24   1.09    7  201   11  64.8  50.9 1013.4 21.3  1.017 -99.9 -99.99 -9.99
2019/12/10 04:24 EST    1.32   1.15    6  209   15  64.9  50.7 1013.5 21.5  1.017 -99.9 -99.99 -9.99
2019/12/10 04:30 EST    1.39   1.22    9  206   12  65.1  50.7 1013.5 21.4  1.017 -99.9 -99.99 -9.99
2019/12/10 04:36 EST    1.47   1.30    7  207   11  64.9  50.7 1013.6 21.6  1.017 -99.9 -99.99 -9.99
2019/12/10 04:42 EST    1.54   1.37    5  209    9  64.8  50.7 1013.4 21.8  1.018 -99.9 -99.99 -9.99
2019/12/10 04:48 EST    1.61   1.41    8  207   12  64.9  50.7 1013.5 21.6  1.017 -99.9 -99.99 -9.99
2019/12/10 04:54 EST    1.69   1.48    8  214   11  64.8  50.7 1013.4 21.8  1.017 -99.9 -99.99 -9.99
2019/12/10 05:00 EST    1.76   1.56    8  210   13  64.9  50.7 1013.5 21.9  1.018 -99.9 -99.99 -9.99
2019/12/10 05:06 EST    1.84   1.63    5  212   12  64.8  50.7 1013.6 21.8  1.018 -99.9 -99.99 -9.99
2019/12/10 05:12 EST    1.91   1.69    5  215   11  64.8  50.9 1013.6 21.7  1.017 -99.9 -99.99 -9.99
2019/12/10 05:18 EST    1.98   1.77    6  214    9  64.8  50.9 1013.7 21.7  1.017 -99.9 -99.99 -9.99
2019/12/10 05:24 EST    2.05   1.85    5  217   10  64.6  50.7 1013.7 22.2  1.018 -99.9 -99.99 -9.99
2019/12/10 05:30 EST    2.12   1.92    5  226    8  64.6  50.7 1013.8 22.6  1.018 -99.9 -99.99 -9.99
2019/12/10 05:36 EST    2.19   1.98    5  219   11  64.6  50.7 1013.8 22.4  1.018 -99.9 -99.99 -9.99
2019/12/10 05:42 EST    2.26   2.05    5  231    8  64.8  50.9 1013.9 22.0  1.018 -99.9 -99.99 -9.99
2019/12/10 05:48 EST    2.32   2.13    4  203    8  64.4  50.7 1013.8 22.3  1.018 -99.9 -99.99 -9.99
2019/12/10 05:54 EST    2.38   2.20    5  198    7  64.4  50.7 1013.8 22.7  1.018 -99.9 -99.99 -9.99
2019/12/10 06:00 EST    2.45   2.25    7  212   10  64.6  50.9 1013.7 21.8  1.018 -99.9 -99.99 -9.99
2019/12/10 06:06 EST    2.50   2.31    5  210    9  64.4  50.9 1013.8 21.6  1.017 -99.9 -99.99 -9.99
2019/12/10 06:12 EST    2.56   2.38    6  217    9  64.4  50.9 1013.9 21.6  1.017 -99.9 -99.99 -9.99
2019/12/10 06:18 EST    2.61   2.44    6  200   10  64.2  50.9 1013.9 21.7  1.017 -99.9 -99.99 -9.99
2019/12/10 06:24 EST    2.66   2.50    5  208    7  64.2  50.9 1013.9 22.0  1.018 -99.9 -99.99 -9.99
2019/12/10 06:30 EST    2.71   2.54    7  209    9  64.4  50.9 1014.0 21.8  1.017 -99.9 -99.99 -9.99
2019/12/10 06:36 EST    2.75   2.58    6  215    9  64.6  50.7 1014.0 22.7  1.018 -99.9 -99.99 -9.99
2019/12/10 06:42 EST    2.79   2.62    7  215   12  64.8  50.7 1014.0 22.9  1.018 -99.9 -99.99 -9.99
2019/12/10 06:48 EST    2.83   2.65    5  210    8  64.8  50.9 1014.1 22.6  1.018 -99.9 -99.99 -9.99
2019/12/10 06:54 EST    2.86   2.67    6  211    9  64.9  50.9 1014.2 22.5  1.018 -99.9 -99.99 -9.99
2019/12/10 07:00 EST    2.89   2.70    6  216   10  64.9  50.9 1014.2 22.6  1.018 -99.9 -99.99 -9.99
2019/12/10 07:06 EST    2.92   2.73    5  207    8  64.9  50.9 1014.3 22.6  1.018 -99.9 -99.99 -9.99
2019/12/10 07:12 EST    2.94   2.76    6  212   14  65.1  50.9 1014.3 22.5  1.018 -99.9 -99.99 -9.99
2019/12/10 07:18 EST    2.96   2.78    7  201   11  65.1  50.9 1014.2 22.4  1.018 -99.9 -99.99 -9.99
2019/12/10 07:24 EST    2.97   2.80   11  201   15  65.3  50.9 1014.2 22.6  1.018 -99.9 -99.99 -9.99
2019/12/10 07:30 EST    2.98   2.81    5  210   14  65.3  50.9 1014.2 22.4  1.018 -99.9 -99.99 -9.99
2019/12/10 07:36 EST    2.98   2.81    7  218   11  65.5  50.9 1014.3 22.6  1.018 -99.9 -99.99 -9.99
2019/12/10 07:42 EST    2.99   2.83    8  210   11  65.5  50.9 1014.2 22.5  1.018 -99.9 -99.99 -9.99
2019/12/10 07:48 EST    2.98   2.83    6  213   11  65.5  50.9 1014.2 22.7  1.018 -99.9 -99.99 -9.99
2019/12/10 07:54 EST    2.98   2.81    7  205   10  65.5  50.9 1014.2 22.8  1.018 -99.9 -99.99 -9.99
2019/12/10 08:00 EST    2.97   2.79    8  204   11  65.5  50.7 1014.2 22.9  1.018 -99.9 -99.99 -9.99
2019/12/10 08:06 EST    2.95   2.77    8  213   11  65.7  50.7 1014.2 22.9  1.018 -99.9 -99.99 -9.99
2019/12/10 08:12 EST    2.93   2.75    9  206   13  65.8  50.7 1014.2 22.9  1.018 -99.9 -99.99 -9.99
2019/12/10 08:18 EST    2.91   2.72    9  211   14  65.8  50.7 1014.4 22.7  1.018 -99.9 -99.99 -9.99
2019/12/10 08:24 EST    2.89   2.69    9  224   17  66.2  50.9 1014.5 22.6  1.018 -99.9 -99.99 -9.99
2019/12/10 08:30 EST    2.86   2.67   10  220   18  66.2  50.9 1014.3 22.5  1.018 -99.9 -99.99 -9.99
2019/12/10 08:36 EST    2.83   2.64    8  217   13  66.2  50.7 1014.4 22.5  1.018 -99.9 -99.99 -9.99
2019/12/10 08:42 EST    2.79   2.60   10  210   18  66.4  50.9 1014.4 22.4  1.018 -99.9 -99.99 -9.99
2019/12/10 08:48 EST    2.76   2.57    8  218   12  66.4  50.7 1014.3 22.7  1.018 -99.9 -99.99 -9.99
2019/12/10 08:54 EST    2.72   2.54    9  219   14  66.7  50.7 1014.5 22.7  1.018 -99.9 -99.99 -9.99
2019/12/10 09:00 EST    2.67   2.50    9  219   15  66.7  50.7 1014.6 22.9  1.018 -99.9 -99.99 -9.99
2019/12/10 09:06 EST    2.63   2.46    8  221   14  66.9  50.7 1014.7 22.7  1.018 -99.9 -99.99 -9.99
2019/12/10 09:12 EST    2.58   2.42    9  232   14  66.9  50.7 1014.7 22.7  1.018 -99.9 -99.99 -9.99
2019/12/10 09:18 EST    2.53   2.37   10  238   14  67.3  50.9 1014.8 22.3  1.018 -99.9 -99.99 -9.99
2019/12/10 09:24 EST    2.48   2.33    8  227   14  67.3  50.7 1014.8 22.5  1.018 -99.9 -99.99 -9.99
2019/12/10 09:30 EST    2.42   2.26   11  227   18  67.5  51.1 1014.8 22.1  1.018 -99.9 -99.99 -9.99
2019/12/10 09:36 EST    2.37   2.20   11  227   16  67.5  50.9 1014.7 22.3  1.018 -99.9 -99.99 -9.99
2019/12/10 09:42 EST    2.31   2.15    8  227   15  67.5  50.9 1014.7 22.4  1.018 -99.9 -99.99 -9.99
2019/12/10 09:48 EST    2.25   2.09    8  224   16  68.0  50.9 1014.6 22.2  1.018 -99.9 -99.99 -9.99
2019/12/10 09:54 EST    2.19   2.03   10  223   15  68.2  50.9 1014.6 22.2  1.018 -99.9 -99.99 -9.99
2019/12/10 10:00 EST    2.12   1.97   10  229   15  68.4  50.9 1014.6 22.2  1.018 -99.9 -99.99 -9.99
2019/12/10 10:06 EST    2.06   1.90   11  210   15  68.5  51.1 1014.4 22.2  1.018 -99.9 -99.99 -9.99
2019/12/10 10:12 EST    1.99   1.85   10  221   15  68.9  50.9 1014.4 22.3  1.018 -99.9 -99.99 -9.99
2019/12/10 10:18 EST    1.93   1.80    9  212   17  69.1  51.1 1014.4 22.0  1.018 -99.9 -99.99 -9.99
2019/12/10 10:24 EST    1.86   1.73    9  211   15  69.4  51.1 1014.3 21.6  1.017 -99.9 -99.99 -9.99
2019/12/10 10:30 EST    1.79   1.67    8  222   16  69.6  51.1 1014.3 22.2  1.018 -99.9 -99.99 -9.99
2019/12/10 10:36 EST    1.72   1.61   10  220   17  69.4  51.4 1014.3 21.2  1.017 -99.9 -99.99 -9.99
2019/12/10 10:42 EST    1.64   1.55   10  212   14  69.4  51.4 1014.1 21.4  1.017 -99.9 -99.99 -9.99
2019/12/10 10:48 EST    1.57   1.47    9  213   15  69.8  51.8 1014.0 21.2  1.017 -99.9 -99.99 -9.99
2019/12/10 10:54 EST    1.50   1.41    9  219   15  70.0  51.8 1013.9 21.1  1.017 -99.9 -99.99 -9.99
2019/12/10 11:00 EST    1.43   1.33   11  218   15  70.2  51.8 1013.8 21.1  1.017 -99.9 -99.99 -9.99
2019/12/10 11:06 EST    1.35   1.24   12  223   19  70.5  51.8 1013.8 21.1  1.017 -99.9 -99.99 -9.99
2019/12/10 11:12 EST    1.28   1.17   11  227   17  70.9  51.8 1013.7 21.1  1.017 -99.9 -99.99 -9.99
2019/12/10 11:18 EST    1.20   1.09   11  218   17  71.1  52.2 1013.7 20.8  1.017 -99.9 -99.99 -9.99
2019/12/10 11:24 EST    1.13   1.02   13  226   21  71.1  52.0 1013.6 20.9  1.017 -99.9 -99.99 -9.99
2019/12/10 11:30 EST    1.06   0.93   11  221   18  71.1  52.2 1013.5 20.9  1.017 -99.9 -99.99 -9.99
2019/12/10 11:36 EST    0.98   0.85   13  213   20  71.4  52.2 1013.4 20.9  1.017 -99.9 -99.99 -9.99
2019/12/10 11:42 EST    0.91   0.79   13  219   23  71.6  52.3 1013.3 20.8  1.017 -99.9 -99.99 -9.99
2019/12/10 11:48 EST    0.84   0.71   11  222   17  71.8  51.6 1013.1 21.4  1.017 -99.9 -99.99 -9.99
2019/12/10 11:54 EST    0.77   0.63   10  222   20  72.0  52.7 1013.0 20.8  1.017 -99.9 -99.99 -9.99
2019/12/10 12:00 EST    0.70   0.55   10  221   16  72.3  52.5 1013.0 20.9  1.017 -99.9 -99.99 -9.99
2019/12/10 12:06 EST    0.63   0.47   11  229   16  72.5  52.5 1012.9 21.0  1.017 -99.9 -99.99 -9.99
2019/12/10 12:12 EST    0.56   0.39   11  214   24  72.7  52.5 1012.8 20.9  1.017 -99.9 -99.99 -9.99
2019/12/10 12:18 EST    0.50   0.32   12  223   16  72.9  52.9 1012.8 20.8  1.017 -99.9 -99.99 -9.99
2019/12/10 12:24 EST    0.44   0.24   11  225   16  73.0  52.9 1012.7 20.8  1.017 -99.9 -99.99 -9.99
2019/12/10 12:30 EST    0.38   0.16   12  222   21  73.0  52.7 1012.7 20.9  1.017 -99.9 -99.99 -9.99
2019/12/10 12:36 EST    0.32   0.09   11  222   23  73.0  52.7 1012.5 20.8  1.017 -99.9 -99.99 -9.99
2019/12/10 12:42 EST    0.27   0.03   11  237   23  73.0  52.5 1012.4 20.9  1.017 -99.9 -99.99 -9.99
2019/12/10 12:48 EST    0.21  -0.03   11  237   17  73.2  53.1 1012.4 20.8  1.017 -99.9 -99.99 -9.99
2019/12/10 12:54 EST    0.17  -0.09    9  231   19  73.6  53.4 1012.3 20.8  1.017 -99.9 -99.99 -9.99
2019/12/10 13:00 EST    0.12  -0.16   10  232   15  73.6  53.6 1012.3 20.8  1.017 -99.9 -99.99 -9.99
2019/12/10 13:06 EST    0.08  -0.22   13  234   18  73.8  53.6 1012.4 20.9  1.017 -99.9 -99.99 -9.99
2019/12/10 13:12 EST    0.04  -0.26   10  223   17  73.6  53.4 1012.4 20.9  1.017 -99.9 -99.99 -9.99
2019/12/10 13:18 EST    0.01  -0.29    8  222   18  74.1  53.8 1012.2 20.9  1.017 -99.9 -99.99 -9.99
2019/12/10 13:24 EST   -0.02  -0.31    8  219   15  74.3  53.8 1012.2 20.8  1.017 -99.9 -99.99 -9.99
2019/12/10 13:30 EST   -0.05  -0.33   10  226   19  74.5  53.6 1012.1 20.8  1.017 -99.9 -99.99 -9.99
2019/12/10 13:36 EST   -0.07  -0.35   12  218   18  74.5  53.8 1012.2 20.8  1.016 -99.9 -99.99 -9.99
2019/12/10 13:42 EST   -0.09  -0.35   11  229   16  74.5  53.8 1012.2 20.8  1.016 -99.9 -99.99 -9.99
2019/12/10 13:48 EST   -0.11  -0.37   10  227   18  74.5  53.6 1012.2 20.8  1.016 -99.9 -99.99 -9.99
2019/12/10 13:54 EST   -0.12  -0.37   11  233   16  74.7  53.6 1012.2 20.7  1.016 -99.9 -99.99 -9.99
2019/12/10 14:00 EST   -0.12  -0.37   11  227   18  74.7  53.4 1012.1 20.7  1.016 -99.9 -99.99 -9.99
2019/12/10 14:06 EST   -0.12  -0.37   14  226   19  74.7  53.6 1012.1 20.7  1.016 -99.9 -99.99 -9.99
2019/12/10 14:12 EST   -0.12  -0.37    9  232   16  74.7  53.4 1012.1 20.7  1.016 -99.9 -99.99 -9.99
2019/12/10 14:18 EST   -0.12  -0.36    7  226   14  74.8  53.2 1012.1 20.7  1.016 -99.9 -99.99 -9.99
2019/12/10 14:24 EST   -0.11  -0.34   10  218   20  74.7  53.4 1011.9 20.7  1.016 -99.9 -99.99 -9.99
2019/12/10 14:30 EST   -0.09  -0.33   10  213   16  74.8  53.4 1011.9 20.7  1.016 -99.9 -99.99 -9.99
2019/12/10 14:36 EST   -0.08  -0.31    9  214   16  75.0  53.6 1011.9 20.7  1.016 -99.9 -99.99 -9.99
2019/12/10 14:42 EST   -0.06  -0.29   11  215   19  75.0  53.8 1011.9 20.6  1.016 -99.9 -99.99 -9.99
2019/12/10 14:48 EST   -0.03  -0.25   11  211   17  75.4  53.8 1011.9 20.6  1.016 -99.9 -99.99 -9.99
2019/12/10 14:54 EST   -0.01  -0.23    9  221   18  75.6  54.0 1011.9 20.6  1.016 -99.9 -99.99 -9.99
2019/12/10 15:00 EST    0.02  -0.20    8  218   14  75.4  54.0 1011.8 20.6  1.016 -99.9 -99.99 -9.99
2019/12/10 15:06 EST    0.06  -0.16    7  219   16  75.4  54.0 1011.9 20.6  1.016 -99.9 -99.99 -9.99
2019/12/10 15:12 EST    0.09  -0.13   13  232   17  75.9  54.1 1012.0 20.5  1.016 -99.9 -99.99 -9.99
2019/12/10 15:18 EST    0.13  -0.09   12  223   17  75.9  54.0 1012.2 20.6  1.016 -99.9 -99.99 -9.99
2019/12/10 15:24 EST    0.17  -0.04    8  219   21  75.9  53.2 1012.2 20.8  1.017 -99.9 -99.99 -9.99
2019/12/10 15:30 EST    0.22  -0.01    8  225   14  75.6  53.6 1012.2 20.7  1.016 -99.9 -99.99 -9.99
2019/12/10 15:36 EST    0.26   0.03    9  224   23  75.7  53.4 1012.2 20.8  1.016 -99.9 -99.99 -9.99
2019/12/10 15:42 EST    0.31   0.07    9  225   14  75.4  53.1 1012.2 20.9  1.017 -99.9 -99.99 -9.99
2019/12/10 15:48 EST    0.36   0.11   11  232   16  75.6  54.1 1012.3 20.6  1.016 -99.9 -99.99 -9.99
2019/12/10 15:54 EST    0.41   0.14   10  222   18  75.4  53.1 1012.3 20.9  1.017 -99.9 -99.99 -9.99
2019/12/10 16:00 EST    0.46 -99.99 -999 -999 -999 -99.9 -99.9 -999.9 -9.9 -9.999 -99.9 -99.99 -9.99
2019/12/10 16:06 EST    0.52 -99.99 -999 -999 -999 -99.9 -99.9 -999.9 -9.9 -9.999 -99.9 -99.99 -9.99
2019/12/10 16:12 EST    0.58 -99.99 -999 -999 -999 -99.9 -99.9 -999.9 -9.9 -9.999 -99.9 -99.99 -9.99
2019/12/10 16:18 EST    0.64 -99.99 -999 -999 -999 -99.9 -99.9 -999.9 -9.9 -9.999 -99.9 -99.99 -9.99
2019/12/10 16:24 EST    0.70 -99.99 -999 -999 -999 -99.9 -99.9 -999.9 -9.9 -9.999 -99.9 -99.99 -9.99
2019/12/10 16:30 EST    0.76 -99.99 -999 -999 -999 -99.9 -99.9 -999.9 -9.9 -9.999 -99.9 -99.99 -9.99
2019/12/10 16:36 EST    0.82 -99.99 -999 -999 -999 -99.9 -99.9 -999.9 -9.9 -9.999 -99.9 -99.99 -9.99
2019/12/10 16:42 EST    0.88 -99.99 -999 -999 -999 -99.9 -99.9 -999.9 -9.9 -9.999 -99.9 -99.99 -9.99
2019/12/10 16:48 EST    0.95 -99.99 -999 -999 -999 -99.9 -99.9 -999.9 -9.9 -9.999 -99.9 -99.99 -9.99
2019/12/10 16:54 EST    1.01 -99.99 -999 -999 -999 -99.9 -99.9 -999.9 -9.9 -9.999 -99.9 -99.99 -9.99
2019/12/10 17:00 EST    1.08 -99.99 -999 -999 -999 -99.9 -99.9 -999.9 -9.9 -9.999 -99.9 -99.99 -9.99
2019/12/10 17:06 EST    1.15 -99.99 -999 -999 -999 -99.9 -99.9 -999.9 -9.9 -9.999 -99.9 -99.99 -9.99
2019/12/10 17:12 EST    1.21 -99.99 -999 -999 -999 -99.9 -99.9 -999.9 -9.9 -9.999 -99.9 -99.99 -9.99
2019/12/10 17:18 EST    1.28 -99.99 -999 -999 -999 -99.9 -99.9 -999.9 -9.9 -9.999 -99.9 -99.99 -9.99
2019/12/10 17:24 EST    1.35 -99.99 -999 -999 -999 -99.9 -99.9 -999.9 -9.9 -9.999 -99.9 -99.99 -9.99
2019/12/10 17:30 EST    1.42 -99.99 -999 -999 -999 -99.9 -99.9 -999.9 -9.9 -9.999 -99.9 -99.99 -9.99
2019/12/10 17:36 EST    1.48 -99.99 -999 -999 -999 -99.9 -99.9 -999.9 -9.9 -9.999 -99.9 -99.99 -9.99
2019/12/10 17:42 EST    1.55 -99.99 -999 -999 -999 -99.9 -99.9 -999.9 -9.9 -9.999 -99.9 -99.99 -9.99
2019/12/10 17:48 EST    1.61 -99.99 -999 -999 -999 -99.9 -99.9 -999.9 -9.9 -9.999 -99.9 -99.99 -9.99
2019/12/10 17:54 EST    1.68 -99.99 -999 -999 -999 -99.9 -99.9 -999.9 -9.9 -9.999 -99.9 -99.99 -9.99
2019/12/10 18:00 EST    1.74 -99.99 -999 -999 -999 -99.9 -99.9 -999.9 -9.9 -9.999 -99.9 -99.99 -9.99
2019/12/10 18:06 EST    1.80 -99.99 -999 -999 -999 -99.9 -99.9 -999.9 -9.9 -9.999 -99.9 -99.99 -9.99
2019/12/10 18:12 EST    1.87 -99.99 -999 -999 -999 -99.9 -99.9 -999.9 -9.9 -9.999 -99.9 -99.99 -9.99
2019/12/10 18:18 EST    1.92 -99.99 -999 -999 -999 -99.9 -99.9 -999.9 -9.9 -9.999 -99.9 -99.99 -9.99
2019/12/10 18:24 EST    1.98 -99.99 -999 -999 -999 -99.9 -99.9 -999.9 -9.9 -9.999 -99.9 -99.99 -9.99
2019/12/10 18:30 EST    2.04 -99.99 -999 -999 -999 -99.9 -99.9 -999.9 -9.9 -9.999 -99.9 -99.99 -9.99
2019/12/10 18:36 EST    2.09 -99.99 -999 -999 -999 -99.9 -99.9 -999.9 -9.9 -9.999 -99.9 -99.99 -9.99
2019/12/10 18:42 EST    2.14 -99.99 -999 -999 -999 -99.9 -99.9 -999.9 -9.9 -9.999 -99.9 -99.99 -9.99
2019/12/10 18:48 EST    2.19 -99.99 -999 -999 -999 -99.9 -99.9 -999.9 -9.9 -9.999 -99.9 -99.99 -9.99
2019/12/10 18:54 EST    2.23 -99.99 -999 -999 -999 -99.9 -99.9 -999.9 -9.9 -9.999 -99.9 -99.99 -9.99
2019/12/10 19:00 EST    2.27 -99.99 -999 -999 -999 -99.9 -99.9 -999.9 -9.9 -9.999 -99.9 -99.99 -9.99
2019/12/10 19:06 EST    2.31 -99.99 -999 -999 -999 -99.9 -99.9 -999.9 -9.9 -9.999 -99.9 -99.99 -9.99
2019/12/10 19:12 EST    2.34 -99.99 -999 -999 -999 -99.9 -99.9 -999.9 -9.9 -9.999 -99.9 -99.99 -9.99
2019/12/10 19:18 EST    2.37 -99.99 -999 -999 -999 -99.9 -99.9 -999.9 -9.9 -9.999 -99.9 -99.99 -9.99
2019/12/10 19:24 EST    2.40 -99.99 -999 -999 -999 -99.9 -99.9 -999.9 -9.9 -9.999 -99.9 -99.99 -9.99
2019/12/10 19:30 EST    2.42 -99.99 -999 -999 -999 -99.9 -99.9 -999.9 -9.9 -9.999 -99.9 -99.99 -9.99
2019/12/10 19:36 EST    2.44 -99.99 -999 -999 -999 -99.9 -99.9 -999.9 -9.9 -9.999 -99.9 -99.99 -9.99
2019/12/10 19:42 EST    2.45 -99.99 -999 -999 -999 -99.9 -99.9 -999.9 -9.9 -9.999 -99.9 -99.99 -9.99
2019/12/10 19:48 EST    2.46 -99.99 -999 -999 -999 -99.9 -99.9 -999.9 -9.9 -9.999 -99.9 -99.99 -9.99
2019/12/10 19:54 EST    2.47 -99.99 -999 -999 -999 -99.9 -99.9 -999.9 -9.9 -9.999 -99.9 -99.99 -9.99
2019/12/10 20:00 EST    2.47 -99.99 -999 -999 -999 -99.9 -99.9 -999.9 -9.9 -9.999 -99.9 -99.99 -9.99
2019/12/10 20:06 EST    2.47 -99.99 -999 -999 -999 -99.9 -99.9 -999.9 -9.9 -9.999 -99.9 -99.99 -9.99
2019/12/10 20:12 EST    2.47 -99.99 -999 -999 -999 -99.9 -99.9 -999.9 -9.9 -9.999 -99.9 -99.99 -9.99
2019/12/10 20:18 EST    2.46 -99.99 -999 -999 -999 -99.9 -99.9 -999.9 -9.9 -9.999 -99.9 -99.99 -9.99
2019/12/10 20:24 EST    2.44 -99.99 -999 -999 -999 -99.9 -99.9 -999.9 -9.9 -9.999 -99.9 -99.99 -9.99
2019/12/10 20:30 EST    2.43 -99.99 -999 -999 -999 -99.9 -99.9 -999.9 -9.9 -9.999 -99.9 -99.99 -9.99
2019/12/10 20:36 EST    2.40 -99.99 -999 -999 -999 -99.9 -99.9 -999.9 -9.9 -9.999 -99.9 -99.99 -9.99
2019/12/10 20:42 EST    2.38 -99.99 -999 -999 -999 -99.9 -99.9 -999.9 -9.9 -9.999 -99.9 -99.99 -9.99
2019/12/10 20:48 EST    2.35 -99.99 -999 -999 -999 -99.9 -99.9 -999.9 -9.9 -9.999 -99.9 -99.99 -9.99
2019/12/10 20:54 EST    2.32 -99.99 -999 -999 -999 -99.9 -99.9 -999.9 -9.9 -9.999 -99.9 -99.99 -9.99
2019/12/10 21:00 EST    2.28 -99.99 -999 -999 -999 -99.9 -99.9 -999.9 -9.9 -9.999 -99.9 -99.99 -9.99
2019/12/10 21:06 EST    2.25 -99.99 -999 -999 -999 -99.9 -99.9 -999.9 -9.9 -9.999 -99.9 -99.99 -9.99
2019/12/10 21:12 EST    2.21 -99.99 -999 -999 -999 -99.9 -99.9 -999.9 -9.9 -9.999 -99.9 -99.99 -9.99
2019/12/10 21:18 EST    2.16 -99.99 -999 -999 -999 -99.9 -99.9 -999.9 -9.9 -9.999 -99.9 -99.99 -9.99
2019/12/10 21:24 EST    2.12 -99.99 -999 -999 -999 -99.9 -99.9 -999.9 -9.9 -9.999 -99.9 -99.99 -9.99
2019/12/10 21:30 EST    2.07 -99.99 -999 -999 -999 -99.9 -99.9 -999.9 -9.9 -9.999 -99.9 -99.99 -9.99
2019/12/10 21:36 EST    2.02 -99.99 -999 -999 -999 -99.9 -99.9 -999.9 -9.9 -9.999 -99.9 -99.99 -9.99
2019/12/10 21:42 EST    1.97 -99.99 -999 -999 -999 -99.9 -99.9 -999.9 -9.9 -9.999 -99.9 -99.99 -9.99
2019/12/10 21:48 EST    1.91 -99.99 -999 -999 -999 -99.9 -99.9 -999.9 -9.9 -9.999 -99.9 -99.99 -9.99
2019/12/10 21:54 EST    1.85 -99.99 -999 -999 -999 -99.9 -99.9 -999.9 -9.9 -9.999 -99.9 -99.99 -9.99
2019/12/10 22:00 EST    1.80 -99.99 -999 -999 -999 -99.9 -99.9 -999.9 -9.9 -9.999 -99.9 -99.99 -9.99
2019/12/10 22:06 EST    1.74 -99.99 -999 -999 -999 -99.9 -99.9 -999.9 -9.9 -9.999 -99.9 -99.99 -9.99
2019/12/10 22:12 EST    1.67 -99.99 -999 -999 -999 -99.9 -99.9 -999.9 -9.9 -9.999 -99.9 -99.99 -9.99